Accueil
METAR-TAF:

METAR-TAF

Aéroports :

Middle Wallop, Angleterre

Army Air Corps Middle Wallop

latitude: 51-09N, longitude: 001-34W, altitude: 91 m

Observation

Le bulletin a été fait il y a 36 minutes, à 09:50 UTC
Vent 8 kt de nord-est
Température 3°C
Humidité 70%
Pression 1023 hPa
Visibilité: 9000 m
Nuages fragmentés à une hauteur de 2800 ft
brume sèche

METAR: EGVP 220950Z 05008KT 9000 HZ BKN028 03/M02 Q1023 BLU NOSIG

Heure: 10:26 (10:26 UTC)

Prévision

Le bulletin a été fait il y a 2 heures et 43 minutes, à 07:43 UTC
Prévision valable du 22 à 09 UTC au 22 à 18 UTC
Vent 10 kt de nord-est
Visibilité: 7000 m
Quelques nuages à une hauteur de 1500 ft
Nuages épars à une hauteur de 2500 ft
brume sèche
Evoluant progressivement
du 22 à 09 UTC au 22 à 11 UTC
Visibilité 10 km ou plus

TAF: EGVP 220743Z 2209/2218 05010KT 7000 HZ FEW015 SCT025 BECMG 2209/2211 9999 NSW

Observations et prévisions météorologiques de plus de 4000 aéroports (messages METAR et TAF).

Les stations disponibles sont représentées par des disques jaunes et rouges sur la carte.

Passer la souris dessus pour voir le nom de la station.

Cliquer dessus pour voir les observations et prévisions météorologiques.

Pour changer de carte: cliquez sur les boutons verts avec une croix noire pour zoomer, sur le bouton vert avec un tiret pour effectuer un zoom arrière, ou sur les flèches vertes pour les cartes adjacentes.


METAR-TAF: